WAT1838 PANC-PAJN
Flight info
| Callsign | WAT1838 |
|---|---|
| Flight time | 1h 13m |
| Altitude | 37000 |
| Route | JOH J501 YAK FAKES ASORT |
| Aircraft | A321/M-SDE3FGHIRWY/LB1 |
Departure
| Time | 2026-04-24 00:28 |
|---|---|
| Airport | Ted Stevens Anchorage International Airport (PANC) |
Arrival
| Time | 2026-04-24 01:42 |
|---|---|
| Airport | Juneau International Airport (PAJN) |
| Time | Latitude | Longitude | Altitude | Speed | Heading |
|---|---|---|---|---|---|
| 2026-04-24 00:03 | 61.17470 | -149.98428 | 121 ft | 0 kts | 82° |
| 2026-04-24 00:20 | 61.17469 | -149.98438 | 112 ft | 3 kts | 82° |
| 2026-04-24 00:20 | 61.17466 | -149.98492 | 108 ft | 4 kts | 87° |
| 2026-04-24 00:20 | 61.17467 | -149.98547 | 107 ft | 4 kts | 105° |
| 2026-04-24 00:21 | 61.17477 | -149.98594 | 108 ft | 4 kts | 139° |
| 2026-04-24 00:21 | 61.17488 | -149.98610 | 106 ft | 0 kts | 159° |
| 2026-04-24 00:23 | 61.17463 | -149.98591 | 110 ft | 8 kts | 159° |
| 2026-04-24 00:23 | 61.17391 | -149.98610 | 113 ft | 15 kts | 206° |
| 2026-04-24 00:23 | 61.17286 | -149.98747 | 114 ft | 18 kts | 213° |
| 2026-04-24 00:24 | 61.17188 | -149.98927 | 120 ft | 18 kts | 229° |
| 2026-04-24 00:24 | 61.17138 | -149.98994 | 123 ft | 6 kts | 147° |
| 2026-04-24 00:24 | 61.17117 | -149.98806 | 124 ft | 24 kts | 96° |
| 2026-04-24 00:24 | 61.17117 | -149.98391 | 120 ft | 31 kts | 90° |
| 2026-04-24 00:25 | 61.17119 | -149.97942 | 116 ft | 31 kts | 91° |
| 2026-04-24 00:25 | 61.17120 | -149.97497 | 116 ft | 30 kts | 88° |
| 2026-04-24 00:25 | 61.17127 | -149.97065 | 114 ft | 26 kts | 88° |
| 2026-04-24 00:25 | 61.17127 | -149.96882 | 111 ft | 8 kts | 96° |
| 2026-04-24 00:26 | 61.17109 | -149.96824 | 111 ft | 2 kts | 151° |
| 2026-04-24 00:26 | 61.17099 | -149.96819 | 113 ft | 4 kts | 165° |
| 2026-04-24 00:26 | 61.17025 | -149.96814 | 116 ft | 18 kts | 179° |
| 2026-04-24 00:26 | 61.16908 | -149.96898 | 115 ft | 13 kts | 250° |
| 2026-04-24 00:27 | 61.16881 | -149.97031 | 116 ft | 17 kts | 247° |
| 2026-04-24 00:27 | 61.16809 | -149.97401 | 112 ft | 37 kts | 248° |
| 2026-04-24 00:27 | 61.16786 | -149.98128 | 111 ft | 79 kts | 269° |
| 2026-04-24 00:27 | 61.16787 | -149.99704 | 120 ft | 140 kts | 270° |
| 2026-04-24 00:28 | 61.16786 | -150.02081 | 206 ft | 178 kts | 271° |
| 2026-04-24 00:28 | 61.16773 | -150.04610 | 891 ft | 173 kts | 266° |
| 2026-04-24 00:28 | 61.16754 | -150.07087 | 1664 ft | 171 kts | 266° |
| 2026-04-24 00:28 | 61.16737 | -150.09595 | 2177 ft | 182 kts | 265° |
| 2026-04-24 00:29 | 61.16719 | -150.12389 | 2455 ft | 205 kts | 266° |
| 2026-04-24 00:29 | 61.16701 | -150.15502 | 2676 ft | 228 kts | 266° |
| 2026-04-24 00:29 | 61.16677 | -150.18975 | 2950 ft | 254 kts | 266° |
| 2026-04-24 00:29 | 61.16516 | -150.22708 | 3535 ft | 263 kts | 248° |
| 2026-04-24 00:30 | 61.15615 | -150.25900 | 4384 ft | 256 kts | 220° |
| 2026-04-24 00:30 | 61.14126 | -150.27750 | 5334 ft | 249 kts | 198° |
| 2026-04-24 00:30 | 61.12473 | -150.28825 | 6238 ft | 250 kts | 194° |
| 2026-04-24 00:30 | 61.10766 | -150.29635 | 7037 ft | 254 kts | 182° |
| 2026-04-24 00:31 | 61.09037 | -150.28957 | 7810 ft | 259 kts | 155° |
| 2026-04-24 00:31 | 61.07636 | -150.26570 | 8641 ft | 268 kts | 130° |
| 2026-04-24 00:31 | 61.06808 | -150.22989 | 9492 ft | 278 kts | 111° |
| 2026-04-24 00:31 | 61.06240 | -150.19145 | 10269 ft | 285 kts | 111° |
| 2026-04-24 00:32 | 61.05642 | -150.15068 | 10514 ft | 308 kts | 111° |
| 2026-04-24 00:32 | 61.04999 | -150.10684 | 10691 ft | 330 kts | 111° |
| 2026-04-24 00:32 | 61.04325 | -150.06064 | 11185 ft | 340 kts | 111° |
| 2026-04-24 00:32 | 61.03640 | -150.01357 | 11849 ft | 345 kts | 111° |
| 2026-04-24 00:33 | 61.02946 | -149.96592 | 12527 ft | 349 kts | 112° |
| 2026-04-24 00:33 | 61.02239 | -149.91765 | 13206 ft | 354 kts | 112° |
| 2026-04-24 00:33 | 61.01518 | -149.86881 | 13885 ft | 358 kts | 112° |
| 2026-04-24 00:33 | 61.00783 | -149.81939 | 14486 ft | 363 kts | 113° |
| 2026-04-24 00:34 | 61.00033 | -149.76938 | 15065 ft | 368 kts | 113° |
| 2026-04-24 00:34 | 60.99260 | -149.71800 | 15651 ft | 373 kts | 114° |
| 2026-04-24 00:34 | 60.98488 | -149.66664 | 16247 ft | 377 kts | 114° |
| 2026-04-24 00:34 | 60.97707 | -149.61482 | 16826 ft | 382 kts | 114° |
| 2026-04-24 00:35 | 60.96911 | -149.56217 | 17418 ft | 387 kts | 114° |
| 2026-04-24 00:35 | 60.96106 | -149.50913 | 18000 ft | 391 kts | 114° |
| 2026-04-24 00:35 | 60.95288 | -149.45541 | 18596 ft | 396 kts | 115° |
| 2026-04-24 00:35 | 60.94456 | -149.40100 | 19113 ft | 400 kts | 115° |
| 2026-04-24 00:36 | 60.93617 | -149.34627 | 19638 ft | 404 kts | 115° |
| 2026-04-24 00:36 | 60.92764 | -149.29086 | 20173 ft | 408 kts | 115° |
| 2026-04-24 00:36 | 60.91905 | -149.23501 | 20684 ft | 411 kts | 115° |
| 2026-04-24 00:36 | 60.91041 | -149.17876 | 21187 ft | 415 kts | 115° |
| 2026-04-24 00:37 | 60.90163 | -149.12189 | 21692 ft | 419 kts | 115° |
| 2026-04-24 00:37 | 60.89274 | -149.06466 | 22173 ft | 423 kts | 115° |
| 2026-04-24 00:37 | 60.88370 | -149.00684 | 22702 ft | 427 kts | 115° |
| 2026-04-24 00:37 | 60.87457 | -148.94868 | 23208 ft | 431 kts | 115° |
| 2026-04-24 00:38 | 60.86531 | -148.88982 | 23687 ft | 435 kts | 115° |
| 2026-04-24 00:38 | 60.85595 | -148.83050 | 24103 ft | 438 kts | 116° |
| 2026-04-24 00:38 | 60.84653 | -148.77089 | 24527 ft | 442 kts | 116° |
| 2026-04-24 00:38 | 60.83696 | -148.71057 | 24943 ft | 446 kts | 116° |
| 2026-04-24 00:39 | 60.82731 | -148.65001 | 25305 ft | 449 kts | 116° |
| 2026-04-24 00:39 | 60.81756 | -148.58904 | 25698 ft | 452 kts | 116° |
| 2026-04-24 00:39 | 60.80756 | -148.52676 | 26083 ft | 455 kts | 117° |
| 2026-04-24 00:39 | 60.79775 | -148.46577 | 26435 ft | 459 kts | 117° |
| 2026-04-24 00:40 | 60.78760 | -148.40275 | 26798 ft | 462 kts | 117° |
| 2026-04-24 00:40 | 60.77749 | -148.34021 | 27179 ft | 464 kts | 117° |
| 2026-04-24 00:40 | 60.76730 | -148.27740 | 27559 ft | 467 kts | 117° |
| 2026-04-24 00:40 | 60.75698 | -148.21406 | 27918 ft | 470 kts | 117° |
| 2026-04-24 00:41 | 60.74657 | -148.15054 | 28246 ft | 473 kts | 117° |
| 2026-04-24 00:41 | 60.73603 | -148.08657 | 28576 ft | 475 kts | 117° |
| 2026-04-24 00:41 | 60.72542 | -148.02241 | 28916 ft | 478 kts | 118° |
| 2026-04-24 00:41 | 60.71472 | -147.95789 | 29243 ft | 481 kts | 118° |
| 2026-04-24 00:42 | 60.70393 | -147.89290 | 29587 ft | 483 kts | 118° |
| 2026-04-24 00:42 | 60.69311 | -147.82791 | 29905 ft | 486 kts | 118° |
| 2026-04-24 00:42 | 60.68213 | -147.76233 | 30198 ft | 489 kts | 118° |
| 2026-04-24 00:42 | 60.67107 | -147.69657 | 30508 ft | 492 kts | 118° |
| 2026-04-24 00:43 | 60.65996 | -147.63065 | 30863 ft | 492 kts | 118° |
| 2026-04-24 00:43 | 60.64877 | -147.56459 | 31198 ft | 494 kts | 118° |
| 2026-04-24 00:43 | 60.64133 | -147.52077 | 31411 ft | 495 kts | 118° |
| 2026-04-24 00:43 | 60.62991 | -147.45351 | 31741 ft | 496 kts | 118° |
| 2026-04-24 00:44 | 60.61860 | -147.38696 | 32063 ft | 498 kts | 118° |
| 2026-04-24 00:44 | 60.60722 | -147.32022 | 32368 ft | 500 kts | 118° |
| 2026-04-24 00:44 | 60.59574 | -147.25342 | 32690 ft | 501 kts | 118° |
| 2026-04-24 00:44 | 60.58416 | -147.18649 | 33002 ft | 503 kts | 118° |
| 2026-04-24 00:45 | 60.57247 | -147.11922 | 33314 ft | 504 kts | 119° |
| 2026-04-24 00:45 | 60.56075 | -147.05197 | 33637 ft | 506 kts | 119° |
| 2026-04-24 00:45 | 60.54897 | -146.98443 | 33937 ft | 507 kts | 119° |
| 2026-04-24 00:45 | 60.53710 | -146.91677 | 34238 ft | 509 kts | 119° |
| 2026-04-24 00:46 | 60.52519 | -146.84908 | 34519 ft | 510 kts | 118° |
| 2026-04-24 00:46 | 60.51326 | -146.78127 | 34838 ft | 509 kts | 118° |
| 2026-04-24 00:46 | 60.50134 | -146.71370 | 35198 ft | 508 kts | 118° |
| 2026-04-24 00:46 | 60.48944 | -146.64653 | 35573 ft | 506 kts | 118° |
| 2026-04-24 00:47 | 60.47875 | -146.57838 | 35946 ft | 510 kts | 110° |
| 2026-04-24 00:47 | 60.47095 | -146.50816 | 36308 ft | 509 kts | 109° |
| 2026-04-24 00:47 | 60.46328 | -146.43833 | 36679 ft | 507 kts | 109° |
| 2026-04-24 00:47 | 60.45559 | -146.36877 | 37059 ft | 504 kts | 109° |
| 2026-04-24 00:48 | 60.44787 | -146.29980 | 37325 ft | 502 kts | 109° |
| 2026-04-24 00:48 | 60.44008 | -146.23087 | 37377 ft | 500 kts | 109° |
| 2026-04-24 00:48 | 60.42447 | -146.09409 | 37402 ft | 498 kts | 109° |
| 2026-04-24 00:49 | 60.40871 | -145.95662 | 37408 ft | 498 kts | 109° |
| 2026-04-24 00:49 | 60.39299 | -145.82027 | 37421 ft | 498 kts | 109° |
| 2026-04-24 00:50 | 60.37709 | -145.68399 | 37423 ft | 498 kts | 109° |
| 2026-04-24 00:50 | 60.36102 | -145.54785 | 37421 ft | 498 kts | 109° |
| 2026-04-24 00:51 | 60.34477 | -145.41189 | 37421 ft | 498 kts | 109° |
| 2026-04-24 00:51 | 60.32842 | -145.27607 | 37421 ft | 498 kts | 109° |
| 2026-04-24 00:52 | 60.31207 | -145.14057 | 37423 ft | 497 kts | 109° |
| 2026-04-24 00:52 | 60.29554 | -145.00524 | 37420 ft | 496 kts | 109° |
| 2026-04-24 00:53 | 60.27882 | -144.87035 | 37431 ft | 496 kts | 109° |
| 2026-04-24 00:53 | 60.26198 | -144.73582 | 37439 ft | 495 kts | 109° |
| 2026-04-24 00:54 | 60.24503 | -144.60162 | 37447 ft | 494 kts | 109° |
| 2026-04-24 00:54 | 60.22790 | -144.46680 | 37445 ft | 493 kts | 110° |
| 2026-04-24 00:55 | 60.21081 | -144.33326 | 37449 ft | 493 kts | 109° |
| 2026-04-24 00:55 | 60.19358 | -144.19989 | 37449 ft | 492 kts | 110° |
| 2026-04-24 00:56 | 60.17628 | -144.06698 | 37458 ft | 491 kts | 110° |
| 2026-04-24 00:56 | 60.15881 | -143.93449 | 37460 ft | 491 kts | 110° |
| 2026-04-24 00:57 | 60.14116 | -143.80205 | 37461 ft | 491 kts | 110° |
| 2026-04-24 00:58 | 60.11465 | -143.60406 | 37467 ft | 490 kts | 110° |
| 2026-04-24 00:58 | 60.09673 | -143.47217 | 37470 ft | 490 kts | 110° |
| 2026-04-24 00:59 | 60.07875 | -143.34067 | 37468 ft | 490 kts | 110° |
| 2026-04-24 00:59 | 60.06058 | -143.20909 | 37467 ft | 490 kts | 110° |
| 2026-04-24 01:00 | 60.04229 | -143.07752 | 37468 ft | 491 kts | 110° |
| 2026-04-24 01:00 | 60.02390 | -142.94617 | 37471 ft | 491 kts | 110° |
| 2026-04-24 01:01 | 60.00526 | -142.81483 | 37468 ft | 492 kts | 110° |
| 2026-04-24 01:01 | 59.98640 | -142.68256 | 37470 ft | 492 kts | 110° |
| 2026-04-24 01:02 | 59.96751 | -142.55094 | 37473 ft | 493 kts | 110° |
| 2026-04-24 01:02 | 59.94850 | -142.41955 | 37463 ft | 493 kts | 111° |
| 2026-04-24 01:03 | 59.92925 | -142.28812 | 37475 ft | 494 kts | 110° |
| 2026-04-24 01:03 | 59.91002 | -142.15670 | 37475 ft | 494 kts | 110° |
| 2026-04-24 01:04 | 59.89061 | -142.02554 | 37486 ft | 494 kts | 110° |
| 2026-04-24 01:04 | 59.87099 | -141.89432 | 37498 ft | 494 kts | 110° |
| 2026-04-24 01:05 | 59.85124 | -141.76322 | 37496 ft | 494 kts | 110° |
| 2026-04-24 01:05 | 59.83134 | -141.63259 | 37497 ft | 494 kts | 110° |
| 2026-04-24 01:06 | 59.81137 | -141.50190 | 37502 ft | 493 kts | 110° |
| 2026-04-24 01:06 | 59.79137 | -141.37167 | 37498 ft | 493 kts | 110° |
| 2026-04-24 01:07 | 59.77114 | -141.24167 | 37499 ft | 493 kts | 111° |
| 2026-04-24 01:07 | 59.75071 | -141.11211 | 37501 ft | 492 kts | 111° |
| 2026-04-24 01:08 | 59.73028 | -140.98263 | 37501 ft | 492 kts | 111° |
| 2026-04-24 01:08 | 59.70969 | -140.85258 | 37501 ft | 491 kts | 111° |
| 2026-04-24 01:09 | 59.68905 | -140.72362 | 37506 ft | 491 kts | 111° |
| 2026-04-24 01:09 | 59.66831 | -140.59499 | 37505 ft | 491 kts | 111° |
| 2026-04-24 01:10 | 59.64744 | -140.46656 | 37511 ft | 490 kts | 111° |
| 2026-04-24 01:10 | 59.62647 | -140.33831 | 37514 ft | 490 kts | 111° |
| 2026-04-24 01:11 | 59.60537 | -140.21017 | 37516 ft | 490 kts | 111° |
| 2026-04-24 01:11 | 59.58414 | -140.08253 | 37519 ft | 490 kts | 111° |
| 2026-04-24 01:12 | 59.56278 | -139.95503 | 37517 ft | 489 kts | 111° |
| 2026-04-24 01:12 | 59.54136 | -139.82765 | 37517 ft | 489 kts | 111° |
| 2026-04-24 01:13 | 59.51982 | -139.70057 | 37523 ft | 489 kts | 111° |
| 2026-04-24 01:13 | 59.49207 | -139.57966 | 37527 ft | 483 kts | 123° |
| 2026-04-24 01:14 | 59.45973 | -139.46363 | 37526 ft | 483 kts | 122° |
| 2026-04-24 01:14 | 59.42746 | -139.34787 | 37524 ft | 483 kts | 122° |
| 2026-04-24 01:15 | 59.39520 | -139.23230 | 37525 ft | 483 kts | 122° |
| 2026-04-24 01:15 | 59.36807 | -139.13574 | 37529 ft | 482 kts | 122° |
| 2026-04-24 01:16 | 59.33553 | -139.02072 | 37531 ft | 482 kts | 122° |
| 2026-04-24 01:16 | 59.30293 | -138.90612 | 37532 ft | 482 kts | 122° |
| 2026-04-24 01:17 | 59.27023 | -138.79171 | 37532 ft | 482 kts | 122° |
| 2026-04-24 01:17 | 59.23746 | -138.67754 | 37532 ft | 481 kts | 123° |
| 2026-04-24 01:18 | 59.20459 | -138.56373 | 37531 ft | 481 kts | 123° |
| 2026-04-24 01:18 | 59.17169 | -138.45006 | 37532 ft | 481 kts | 122° |
| 2026-04-24 01:19 | 59.13847 | -138.33581 | 37533 ft | 481 kts | 123° |
| 2026-04-24 01:19 | 59.10534 | -138.22264 | 37537 ft | 481 kts | 123° |
| 2026-04-24 01:19 | 59.08875 | -138.16624 | 37427 ft | 481 kts | 123° |
| 2026-04-24 01:20 | 59.07200 | -138.10949 | 36328 ft | 487 kts | 123° |
| 2026-04-24 01:20 | 59.05504 | -138.05231 | 35618 ft | 487 kts | 123° |
| 2026-04-24 01:20 | 59.03805 | -137.99497 | 34827 ft | 491 kts | 122° |
| 2026-04-24 01:20 | 59.02090 | -137.93719 | 33779 ft | 498 kts | 122° |
| 2026-04-24 01:21 | 59.00350 | -137.87874 | 32819 ft | 502 kts | 122° |
| 2026-04-24 01:21 | 58.98606 | -137.82024 | 32287 ft | 497 kts | 122° |
| 2026-04-24 01:21 | 58.96885 | -137.76255 | 31684 ft | 494 kts | 122° |
| 2026-04-24 01:21 | 58.95166 | -137.70506 | 31098 ft | 491 kts | 122° |
| 2026-04-24 01:22 | 58.93457 | -137.64816 | 30512 ft | 489 kts | 122° |
| 2026-04-24 01:22 | 58.91746 | -137.59138 | 29885 ft | 485 kts | 122° |
| 2026-04-24 01:22 | 58.90050 | -137.53531 | 29317 ft | 481 kts | 122° |
| 2026-04-24 01:22 | 58.88367 | -137.47976 | 28745 ft | 475 kts | 122° |
| 2026-04-24 01:23 | 58.86684 | -137.42426 | 28188 ft | 470 kts | 122° |
| 2026-04-24 01:23 | 58.85043 | -137.37023 | 27648 ft | 466 kts | 122° |
| 2026-04-24 01:23 | 58.83406 | -137.31646 | 27108 ft | 461 kts | 122° |
| 2026-04-24 01:23 | 58.81782 | -137.26324 | 26575 ft | 457 kts | 122° |
| 2026-04-24 01:24 | 58.80176 | -137.21069 | 26080 ft | 453 kts | 122° |
| 2026-04-24 01:24 | 58.78579 | -137.15861 | 25569 ft | 449 kts | 122° |
| 2026-04-24 01:24 | 58.76994 | -137.10713 | 25081 ft | 445 kts | 122° |
| 2026-04-24 01:24 | 58.75418 | -137.05611 | 24599 ft | 441 kts | 123° |
| 2026-04-24 01:25 | 58.73850 | -137.00539 | 24134 ft | 437 kts | 123° |
| 2026-04-24 01:25 | 58.72307 | -136.95554 | 23636 ft | 432 kts | 123° |
| 2026-04-24 01:25 | 58.70780 | -136.90632 | 23191 ft | 425 kts | 123° |
| 2026-04-24 01:25 | 58.69276 | -136.85788 | 22744 ft | 419 kts | 123° |
| 2026-04-24 01:26 | 58.67789 | -136.81012 | 22310 ft | 413 kts | 123° |
| 2026-04-24 01:26 | 58.66300 | -136.76242 | 21873 ft | 408 kts | 123° |
| 2026-04-24 01:26 | 58.64850 | -136.71617 | 21428 ft | 404 kts | 123° |
| 2026-04-24 01:26 | 58.63401 | -136.67004 | 20986 ft | 400 kts | 123° |
| 2026-04-24 01:27 | 58.61970 | -136.62456 | 20544 ft | 396 kts | 123° |
| 2026-04-24 01:27 | 58.60550 | -136.57949 | 20102 ft | 394 kts | 123° |
| 2026-04-24 01:27 | 58.59138 | -136.53478 | 19655 ft | 391 kts | 123° |
| 2026-04-24 01:27 | 58.57734 | -136.49032 | 19205 ft | 388 kts | 123° |
| 2026-04-24 01:28 | 58.56335 | -136.44617 | 18753 ft | 387 kts | 124° |
| 2026-04-24 01:28 | 58.54945 | -136.40237 | 18266 ft | 383 kts | 123° |
| 2026-04-24 01:28 | 58.53550 | -136.35844 | 17343 ft | 388 kts | 123° |
| 2026-04-24 01:28 | 58.52167 | -136.31486 | 16882 ft | 382 kts | 123° |
| 2026-04-24 01:29 | 58.50793 | -136.27164 | 16451 ft | 378 kts | 123° |
| 2026-04-24 01:29 | 58.49427 | -136.22875 | 16028 ft | 375 kts | 123° |
| 2026-04-24 01:29 | 58.48076 | -136.18644 | 15602 ft | 372 kts | 123° |
| 2026-04-24 01:29 | 58.46728 | -136.14439 | 15182 ft | 369 kts | 123° |
| 2026-04-24 01:30 | 58.45391 | -136.10282 | 14765 ft | 367 kts | 123° |
| 2026-04-24 01:30 | 58.44059 | -136.06152 | 14351 ft | 364 kts | 123° |
| 2026-04-24 01:30 | 58.42734 | -136.02050 | 13890 ft | 361 kts | 123° |
| 2026-04-24 01:30 | 58.41420 | -135.97987 | 13485 ft | 358 kts | 123° |
| 2026-04-24 01:31 | 58.40122 | -135.93969 | 13061 ft | 354 kts | 123° |
| 2026-04-24 01:31 | 58.38840 | -135.89987 | 12654 ft | 352 kts | 122° |
| 2026-04-24 01:31 | 58.37606 | -135.85971 | 12245 ft | 350 kts | 121° |
| 2026-04-24 01:31 | 58.36432 | -135.81932 | 11836 ft | 348 kts | 114° |
| 2026-04-24 01:32 | 58.35980 | -135.77477 | 11479 ft | 343 kts | 85° |
| 2026-04-24 01:32 | 58.36277 | -135.72982 | 11183 ft | 342 kts | 82° |
| 2026-04-24 01:32 | 58.36380 | -135.68460 | 10881 ft | 342 kts | 90° |
| 2026-04-24 01:32 | 58.36317 | -135.63951 | 10652 ft | 339 kts | 90° |
| 2026-04-24 01:33 | 58.36291 | -135.59459 | 10659 ft | 340 kts | 89° |
| 2026-04-24 01:33 | 58.36296 | -135.54891 | 10655 ft | 340 kts | 89° |
| 2026-04-24 01:33 | 58.36289 | -135.50393 | 10589 ft | 340 kts | 89° |
| 2026-04-24 01:33 | 58.36280 | -135.45894 | 10109 ft | 340 kts | 89° |
| 2026-04-24 01:34 | 58.36274 | -135.41406 | 9688 ft | 333 kts | 89° |
| 2026-04-24 01:34 | 58.36265 | -135.37171 | 9613 ft | 309 kts | 89° |
| 2026-04-24 01:34 | 58.36251 | -135.33123 | 9085 ft | 306 kts | 89° |
| 2026-04-24 01:34 | 58.36230 | -135.29063 | 8210 ft | 304 kts | 90° |
| 2026-04-24 01:35 | 58.36212 | -135.25117 | 7702 ft | 292 kts | 89° |
| 2026-04-24 01:35 | 58.36199 | -135.21322 | 7271 ft | 281 kts | 89° |
| 2026-04-24 01:35 | 58.36184 | -135.17653 | 6844 ft | 273 kts | 90° |
| 2026-04-24 01:35 | 58.36168 | -135.14079 | 6396 ft | 267 kts | 90° |
| 2026-04-24 01:36 | 58.36149 | -135.10533 | 5998 ft | 262 kts | 90° |
| 2026-04-24 01:36 | 58.36134 | -135.07100 | 5602 ft | 258 kts | 90° |
| 2026-04-24 01:36 | 58.36116 | -135.03692 | 5199 ft | 255 kts | 90° |
| 2026-04-24 01:36 | 58.36099 | -135.00333 | 4831 ft | 250 kts | 90° |
| 2026-04-24 01:37 | 58.36076 | -134.97082 | 4423 ft | 241 kts | 90° |
| 2026-04-24 01:37 | 58.36055 | -134.93949 | 4059 ft | 231 kts | 90° |
| 2026-04-24 01:37 | 58.36037 | -134.90956 | 3724 ft | 220 kts | 90° |
| 2026-04-24 01:37 | 58.36020 | -134.88145 | 3386 ft | 205 kts | 90° |
| 2026-04-24 01:38 | 58.36005 | -134.85555 | 3076 ft | 187 kts | 90° |
| 2026-04-24 01:38 | 58.35991 | -134.83200 | 2836 ft | 167 kts | 91° |
| 2026-04-24 01:38 | 58.35974 | -134.81080 | 2527 ft | 154 kts | 91° |
| 2026-04-24 01:38 | 58.35955 | -134.79084 | 2280 ft | 149 kts | 90° |
| 2026-04-24 01:39 | 58.35940 | -134.77137 | 2061 ft | 146 kts | 90° |
| 2026-04-24 01:39 | 58.35927 | -134.75220 | 1865 ft | 144 kts | 89° |
| 2026-04-24 01:39 | 58.36079 | -134.73346 | 1656 ft | 143 kts | 76° |
| 2026-04-24 01:39 | 58.36307 | -134.71506 | 1451 ft | 142 kts | 77° |
| 2026-04-24 01:40 | 58.36406 | -134.69632 | 1357 ft | 143 kts | 92° |
| 2026-04-24 01:40 | 58.36333 | -134.67733 | 1187 ft | 143 kts | 91° |
| 2026-04-24 01:40 | 58.36355 | -134.65839 | 1041 ft | 143 kts | 89° |
| 2026-04-24 01:40 | 58.36317 | -134.63954 | 833 ft | 142 kts | 97° |
| 2026-04-24 01:41 | 58.36126 | -134.62126 | 514 ft | 140 kts | 102° |
| 2026-04-24 01:41 | 58.35878 | -134.60355 | 199 ft | 137 kts | 102° |
| 2026-04-24 01:41 | 58.35639 | -134.58639 | 32 ft | 129 kts | 104° |
| 2026-04-24 01:41 | 58.35475 | -134.57467 | 33 ft | 58 kts | 105° |
| 2026-04-24 01:42 | 58.35395 | -134.56902 | 33 ft | 34 kts | 105° |
| 2026-04-24 01:42 | 58.35416 | -134.56685 | 32 ft | 14 kts | 20° |
| 2026-04-24 01:42 | 58.35483 | -134.56736 | 31 ft | 11 kts | 292° |
| 2026-04-24 01:42 | 58.35503 | -134.56867 | 33 ft | 10 kts | 286° |
| 2026-04-24 01:43 | 58.35521 | -134.56991 | 33 ft | 11 kts | 284° |
| 2026-04-24 01:43 | 58.35554 | -134.57241 | 31 ft | 25 kts | 284° |
| 2026-04-24 01:43 | 58.35598 | -134.57559 | 33 ft | 24 kts | 285° |
| 2026-04-24 01:43 | 58.35641 | -134.57864 | 33 ft | 23 kts | 285° |
| 2026-04-24 01:44 | 58.35681 | -134.58155 | 33 ft | 22 kts | 285° |
| 2026-04-24 01:44 | 58.35724 | -134.58293 | 33 ft | 10 kts | 344° |
| 2026-04-24 01:44 | 58.35786 | -134.58303 | 33 ft | 6 kts | 359° |
| 2026-04-24 01:44 | 58.35800 | -134.58303 | 32 ft | 0 kts | 359° |
| 2026-04-24 01:45 | 58.35805 | -134.58303 | 33 ft | 3 kts | 0° |
| 2026-04-24 01:45 | 58.35835 | -134.58303 | 33 ft | 0 kts | 360° |